createdAt,value
2018-03-02T00:01:11.435Z,-6.08
2018-03-02T00:03:44.718Z,-6.14
2018-03-02T00:06:18.010Z,-6.12
2018-03-02T00:08:51.267Z,-6.12
2018-03-02T00:11:24.545Z,-6.14
2018-03-02T00:13:57.797Z,-6.19
2018-03-02T01:47:35.121Z,-6.74
2018-03-02T01:50:09.163Z,-6.74
2018-03-02T01:52:42.441Z,-6.75
2018-03-02T01:55:16.493Z,-6.73
2018-03-02T01:57:49.754Z,-6.75
2018-03-02T03:31:31.089Z,-6.78
2018-03-02T03:34:04.369Z,-6.81
2018-03-02T03:36:37.678Z,-6.82
2018-03-02T03:39:10.931Z,-6.83
2018-03-02T03:41:45.006Z,-6.81
2018-03-02T03:44:18.272Z,-6.79
2018-03-02T05:31:01.638Z,-6.50
2018-03-02T05:33:34.913Z,-6.50
2018-03-02T05:36:08.192Z,-6.50
2018-03-02T05:38:41.457Z,-6.51
2018-03-02T05:41:15.514Z,-6.52
2018-03-02T05:43:48.778Z,-6.50
2018-03-02T05:46:22.087Z,-6.48
2018-03-02T05:48:55.351Z,-6.50
2018-03-02T05:51:28.653Z,-6.52
2018-03-02T05:54:02.699Z,-6.54
2018-03-02T05:56:35.989Z,-6.55
2018-03-02T05:59:09.265Z,-6.57
2018-03-02T06:01:43.318Z,-6.54
2018-03-02T06:04:16.570Z,-6.52
2018-03-02T06:06:49.958Z,-6.51
2018-03-02T06:09:23.234Z,-6.47
2018-03-02T06:11:56.529Z,-6.46
2018-03-02T06:14:29.815Z,-6.46
2018-03-02T06:17:03.089Z,-6.45
2018-03-02T06:19:36.372Z,-6.47
2018-03-02T06:22:09.634Z,-6.49
2018-03-02T06:24:43.696Z,-6.49
2018-03-02T06:27:16.956Z,-6.48
2018-03-02T06:29:50.257Z,-6.47
2018-03-02T06:32:23.517Z,-6.45
2018-03-02T06:34:57.584Z,-6.45
2018-03-02T06:37:30.848Z,-6.43
2018-03-02T06:40:04.145Z,-6.40
2018-03-02T06:42:37.409Z,-6.40
2018-03-02T06:45:10.711Z,-6.40
2018-03-02T06:47:44.760Z,-6.37
2018-03-02T06:50:18.048Z,-6.35
2018-03-02T06:52:51.357Z,-6.32
2018-03-02T06:55:24.610Z,-6.29
2018-03-02T06:57:57.896Z,-6.25
2018-03-02T07:00:31.181Z,-6.25
2018-03-02T07:03:04.459Z,-6.23
2018-03-02T07:05:37.718Z,-6.22
2018-03-02T07:08:11.013Z,-6.21
2018-03-02T07:10:44.265Z,-6.19
2018-03-02T07:13:18.313Z,-6.16
2018-03-02T07:15:51.578Z,-6.10
2018-03-02T07:18:25.620Z,-6.07
2018-03-02T07:20:58.880Z,-6.06
2018-03-02T07:23:32.173Z,-6.03
2018-03-02T07:26:06.217Z,-6.02
2018-03-02T07:28:39.501Z,-5.97
2018-03-02T09:02:23.026Z,-4.28
2018-03-02T09:04:56.328Z,-4.19
2018-03-02T09:07:29.610Z,-4.12
2018-03-02T09:10:02.906Z,-4.05
2018-03-02T09:12:36.179Z,-3.93
2018-03-02T09:15:09.460Z,-3.89
2018-03-02T11:01:54.945Z,-2.36
2018-03-02T11:04:33.660Z,-2.30
2018-03-02T11:07:06.937Z,-2.25
2018-03-02T11:09:40.205Z,-2.20
2018-03-02T11:12:13.496Z,-2.21
2018-03-02T11:14:47.523Z,-2.26
2018-03-02T13:01:27.858Z,0.45
2018-03-02T13:04:01.141Z,0.62
2018-03-02T13:06:34.521Z,0.83
2018-03-02T13:09:07.812Z,1.01
2018-03-02T13:11:41.106Z,1.25
2018-03-02T13:14:14.356Z,1.51
2018-03-02T15:00:55.824Z,-1.79
2018-03-02T15:03:29.083Z,-1.89
2018-03-02T15:06:02.383Z,-1.89
2018-03-02T15:08:35.665Z,-1.87
2018-03-02T15:11:08.931Z,-1.94
2018-03-02T15:13:42.232Z,-1.91
2018-03-02T15:45:54.013Z,-1.88
2018-03-02T15:48:27.288Z,-1.80
2018-03-02T15:51:01.344Z,-1.83
2018-03-02T15:53:34.628Z,-1.77
2018-03-02T15:56:07.905Z,-1.72
2018-03-02T15:58:41.961Z,-1.76
2018-03-02T16:01:15.369Z,-1.84
2018-03-02T16:03:49.770Z,-1.87
2018-03-02T16:06:23.207Z,-1.85
2018-03-02T16:08:57.110Z,-1.80
2018-03-02T16:11:30.474Z,-1.79
2018-03-02T16:14:03.761Z,-1.90
2018-03-02T16:16:37.024Z,-1.95
2018-03-02T16:19:10.309Z,-1.94
2018-03-02T16:21:44.335Z,-1.92
2018-03-02T16:24:17.629Z,-1.97
2018-03-02T16:26:51.645Z,-2.02
2018-03-02T16:29:24.949Z,-2.03
2018-03-02T16:31:58.418Z,-2.08
2018-03-02T16:34:34.181Z,-2.13
2018-03-02T16:37:10.398Z,-2.13
2018-03-02T16:39:44.929Z,-2.19
2018-03-02T16:42:18.896Z,-2.18
2018-03-02T16:44:53.561Z,-2.09
2018-03-02T16:47:27.558Z,-1.87
2018-03-02T16:50:00.844Z,-1.69
2018-03-02T16:52:34.839Z,-1.67
2018-03-02T16:55:09.874Z,-1.75
2018-03-02T16:57:43.978Z,-1.80
2018-03-02T17:00:18.395Z,-1.82
2018-03-02T17:03:02.791Z,-1.83
2018-03-02T17:05:37.134Z,-1.88
2018-03-02T17:08:11.163Z,-1.91
2018-03-02T17:10:44.523Z,-1.94
2018-03-02T17:13:17.844Z,-2.01
2018-03-02T17:15:51.984Z,-2.06
2018-03-02T17:18:26.155Z,-2.07
2018-03-02T17:21:01.208Z,-2.06
2018-03-02T17:23:34.473Z,-2.05
2018-03-02T17:26:07.791Z,-2.06
2018-03-02T17:28:41.097Z,-2.06
2018-03-02T17:31:14.521Z,-2.06
2018-03-02T17:33:47.811Z,-2.09
2018-03-02T17:36:21.835Z,-2.09
2018-03-02T17:38:55.168Z,-2.13
2018-03-02T17:41:28.433Z,-2.12
2018-03-02T17:44:01.732Z,-2.16
2018-03-02T17:46:34.980Z,-1.96
2018-03-02T17:49:09.034Z,-1.74
2018-03-02T17:51:42.304Z,-1.77
2018-03-02T17:54:16.357Z,-1.87
2018-03-02T17:56:49.612Z,-1.95
2018-03-02T17:59:22.903Z,-2.04
2018-03-02T18:01:56.174Z,-2.11
2018-03-02T18:04:29.474Z,-2.12
2018-03-02T18:07:02.730Z,-2.14
2018-03-02T18:09:36.021Z,-2.20
2018-03-02T18:12:09.309Z,-2.25
2018-03-02T18:14:42.589Z,-2.25
2018-03-02T18:17:15.850Z,-2.24
2018-03-02T18:19:49.133Z,-2.23
2018-03-02T18:22:22.398Z,-2.24
2018-03-02T18:24:55.689Z,-2.24
2018-03-02T18:27:28.962Z,-2.24
2018-03-02T18:30:02.471Z,-2.24
2018-03-02T18:32:36.775Z,-2.24
2018-03-02T18:35:10.037Z,-2.23
2018-03-02T18:37:44.090Z,-2.21
2018-03-02T18:40:17.381Z,-2.21
2018-03-02T18:42:50.664Z,-2.25
2018-03-02T18:45:23.926Z,-2.25
2018-03-02T18:47:57.978Z,-2.24
2018-03-02T18:50:31.240Z,-2.21
2018-03-02T18:53:04.527Z,-2.18
2018-03-02T18:55:39.300Z,-2.13
2018-03-02T18:58:12.597Z,-2.14
2018-03-02T19:00:45.849Z,-2.20
2018-03-02T19:03:20.023Z,-2.23
2018-03-02T19:05:53.262Z,-2.21
2018-03-02T19:08:27.313Z,-2.16
2018-03-02T19:11:00.573Z,-2.08
2018-03-02T19:13:35.354Z,-2.06
2018-03-02T19:16:08.619Z,-2.04
2018-03-02T19:18:41.972Z,-2.05
2018-03-02T19:21:15.280Z,-2.03
2018-03-02T19:23:49.427Z,-2.04
2018-03-02T19:26:22.713Z,-2.02
2018-03-02T19:28:56.004Z,-1.99
2018-03-02T19:31:29.261Z,-1.96
2018-03-02T19:34:02.549Z,-1.93
2018-03-02T19:36:35.808Z,-1.91
2018-03-02T19:39:09.094Z,-1.89
2018-03-02T19:41:42.358Z,-1.87
2018-03-02T19:44:16.412Z,-1.87
2018-03-02T19:46:49.673Z,-1.87
2018-03-02T19:49:22.968Z,-1.89
2018-03-02T19:52:02.206Z,-1.90
2018-03-02T19:54:36.340Z,-1.91
2018-03-02T19:57:09.604Z,-1.90
2018-03-02T19:59:42.893Z,-1.88
2018-03-02T20:02:16.182Z,-1.87
2018-03-02T20:04:50.230Z,-1.87
2018-03-02T20:07:23.492Z,-1.86
2018-03-02T20:09:57.553Z,-1.86
2018-03-02T20:12:31.588Z,-1.85
2018-03-02T20:15:04.881Z,-1.84
2018-03-02T20:17:38.144Z,-1.84
2018-03-02T20:20:11.433Z,-1.85
2018-03-02T20:22:44.690Z,-1.85
2018-03-02T20:25:18.861Z,-1.86
2018-03-02T20:27:52.146Z,-1.86
2018-03-02T20:30:25.510Z,-1.84
2018-03-02T20:32:58.878Z,-1.83
2018-03-02T20:35:32.978Z,-1.82
2018-03-02T20:38:06.339Z,-1.80
2018-03-02T20:40:39.674Z,-1.79
2018-03-02T20:43:12.994Z,-1.77
2018-03-02T20:45:47.042Z,-1.75
2018-03-02T20:48:20.309Z,-1.75
2018-03-02T20:50:53.601Z,-1.76
2018-03-02T20:53:26.859Z,-1.74
2018-03-02T20:56:00.160Z,-1.73
2018-03-02T20:58:33.416Z,-1.72
2018-03-02T21:01:06.709Z,-1.72
2018-03-02T21:03:39.956Z,-1.72
2018-03-02T21:06:14.008Z,-1.71
2018-03-02T21:08:47.286Z,-1.70
2018-03-02T21:11:20.555Z,-1.69
2018-03-02T21:13:54.590Z,-1.68
2018-03-02T21:16:27.864Z,-1.67
2018-03-02T21:19:01.893Z,-1.67
2018-03-02T21:21:35.185Z,-1.65
2018-03-02T21:24:09.246Z,-1.66
2018-03-02T21:26:42.526Z,-1.63
2018-03-02T21:29:15.785Z,-1.62
2018-03-02T21:31:49.959Z,-1.62
2018-03-02T21:34:24.111Z,-1.60
2018-03-02T21:36:57.410Z,-1.58
2018-03-02T21:39:30.697Z,-1.57
2018-03-02T21:42:04.722Z,-1.56
2018-03-02T21:44:38.008Z,-1.54
2018-03-02T21:47:11.273Z,-1.54
2018-03-02T21:49:44.551Z,-1.53
2018-03-02T21:52:17.814Z,-1.53
2018-03-02T21:54:51.098Z,-1.51
2018-03-02T21:57:24.371Z,-1.50
2018-03-02T21:59:58.403Z,-1.49
2018-03-02T22:02:31.689Z,-1.48
2018-03-02T22:05:05.715Z,-1.46
2018-03-02T22:07:38.993Z,-1.45
2018-03-02T22:10:12.252Z,-1.44
2018-03-02T22:12:45.553Z,-1.41
2018-03-02T22:15:20.299Z,-1.40
2018-03-02T22:17:54.357Z,-1.39
2018-03-02T22:20:27.633Z,-1.37
2018-03-02T22:23:00.897Z,-1.35
2018-03-02T22:25:34.936Z,-1.34
2018-03-02T22:28:08.197Z,-1.31
2018-03-02T22:30:42.261Z,-1.31
2018-03-02T22:33:15.533Z,-1.32
2018-03-02T22:35:48.826Z,-1.31
2018-03-02T22:38:22.077Z,-1.32
2018-03-02T22:40:55.373Z,-1.33
2018-03-02T22:43:28.641Z,-1.32
2018-03-02T22:46:01.938Z,-1.33
2018-03-02T22:48:35.225Z,-1.33
2018-03-02T22:51:08.481Z,-1.33
2018-03-02T22:53:41.770Z,-1.31
2018-03-02T22:56:15.028Z,-1.31
2018-03-02T22:58:48.312Z,-1.31
2018-03-02T23:01:21.577Z,-1.30
2018-03-02T23:03:54.865Z,-1.29
2018-03-02T23:06:28.125Z,-1.29
2018-03-02T23:09:01.415Z,-1.28
2018-03-02T23:11:34.672Z,-1.28
2018-03-02T23:14:07.956Z,-1.28
2018-03-02T23:16:41.213Z,-1.26
2018-03-02T23:19:14.505Z,-1.26
2018-03-02T23:21:47.784Z,-1.24
2018-03-02T23:24:21.084Z,-1.24
2018-03-02T23:26:55.109Z,-1.23
2018-03-02T23:29:28.402Z,-1.22
2018-03-02T23:32:01.675Z,-1.19
2018-03-02T23:34:34.965Z,-1.19
2018-03-02T23:37:08.266Z,-1.20
2018-03-02T23:39:42.292Z,-1.20
2018-03-02T23:42:16.353Z,-1.17
2018-03-02T23:44:49.625Z,-1.16
2018-03-02T23:47:22.891Z,-1.17
2018-03-02T23:49:56.950Z,-1.15
2018-03-02T23:52:30.205Z,-1.15
2018-03-02T23:55:03.496Z,-1.13
2018-03-02T23:57:36.753Z,-1.14
